Time;durP1;ratioP1;P1;durP2;ratioP2;P2;SDS_P1;SDS_P2;PMS_P1;PMS_P2;Temp;Humidity;BMP_temperature;BMP_pressure;BME280_temperature;BME280_humidity;BME280_pressure;Samples;Min_cycle;Max_cycle;Signal;HPM_P1;HPM_P2
2021/09/25 00:00:47;;;;;;;5.43;3.97;;;14.30;99.90;;;;;;5045663;28;20665;-65
2021/09/25 00:03:15;;;;;;;4.53;3.83;;;14.30;99.90;;;;;;5046434;28;20236;-65
2021/09/25 00:05:44;;;;;;;4.40;4.10;;;14.30;99.90;;;;;;5047503;28;20636;-65
2021/09/25 00:08:13;;;;;;;4.53;4.00;;;14.30;99.90;;;;;;5076460;28;20277;-64
2021/09/25 00:10:42;;;;;;;4.67;4.33;;;14.30;99.90;;;;;;5039043;28;20268;-64
2021/09/25 00:13:11;;;;;;;4.17;3.87;;;14.30;99.90;;;;;;5046201;28;20200;-64
2021/09/25 00:15:39;;;;;;;13.43;4.20;;;14.30;99.90;;;;;;5045730;28;20519;-64
2021/09/25 00:18:09;;;;;;;4.30;4.00;;;14.30;99.90;;;;;;5051520;28;20228;-64
2021/09/25 00:20:39;;;;;;;4.97;4.47;;;14.20;99.90;;;;;;5049989;28;20626;-64
2021/09/25 00:23:07;;;;;;;4.97;4.17;;;14.20;99.90;;;;;;5043082;28;20723;-65
2021/09/25 00:25:35;;;;;;;7.57;4.23;;;14.20;99.90;;;;;;5047595;28;20198;-64
2021/09/25 00:28:04;;;;;;;5.53;4.33;;;14.10;99.90;;;;;;5047648;28;20644;-65
2021/09/25 00:30:33;;;;;;;5.00;4.47;;;14.10;99.90;;;;;;5046178;28;20317;-64
2021/09/25 00:33:02;;;;;;;5.40;4.00;;;14.00;99.90;;;;;;5039073;28;20201;-64
2021/09/25 00:35:32;;;;;;;4.50;4.20;;;14.00;99.90;;;;;;5047564;28;20327;-64
2021/09/25 00:38:00;;;;;;;4.33;3.93;;;14.00;99.90;;;;;;5049102;28;20283;-64
2021/09/25 00:40:29;;;;;;;6.40;4.23;;;13.90;99.90;;;;;;5047784;28;20644;-65
2021/09/25 00:42:57;;;;;;;5.63;5.00;;;13.90;99.90;;;;;;5046707;28;20747;-64
2021/09/25 00:45:26;;;;;;;4.80;4.50;;;13.80;99.90;;;;;;5045420;28;20192;-64
2021/09/25 00:47:55;;;;;;;5.23;4.47;;;13.80;99.90;;;;;;5045506;28;20203;-65
2021/09/25 00:50:26;;;;;;;7.40;4.87;;;13.90;99.90;;;;;;5043067;28;20255;-64
2021/09/25 00:52:56;;;;;;;7.20;5.00;;;13.90;99.90;;;;;;5045552;28;20279;-64
2021/09/25 00:55:25;;;;;;;7.50;4.87;;;13.80;99.90;;;;;;5048975;28;20188;-64
2021/09/25 00:57:59;;;;;;;9.97;5.07;;;13.80;99.90;;;;;;5050551;28;20219;-65
2021/09/25 01:00:29;;;;;;;7.77;5.13;;;13.80;99.90;;;;;;5046567;28;20189;-64
2021/09/25 01:02:57;;;;;;;5.90;5.13;;;13.80;99.90;;;;;;5040042;28;20749;-64
2021/09/25 01:05:26;;;;;;;5.93;5.20;;;13.70;99.90;;;;;;5046119;28;20196;-64
2021/09/25 01:07:57;;;;;;;5.47;4.93;;;13.70;99.90;;;;;;5047798;28;20200;-65
2021/09/25 01:10:25;;;;;;;7.67;5.00;;;13.70;99.90;;;;;;5046957;28;20193;-64
2021/09/25 01:12:53;;;;;;;10.87;5.53;;;13.60;99.90;;;;;;5043524;28;20312;-64
2021/09/25 01:15:22;;;;;;;6.10;4.97;;;13.60;99.90;;;;;;5045717;28;20729;-64
2021/09/25 01:17:50;;;;;;;7.70;5.20;;;13.60;99.90;;;;;;5076226;28;20196;-64
2021/09/25 01:20:19;;;;;;;11.10;5.87;;;13.60;99.90;;;;;;5046287;28;20276;-64
2021/09/25 01:22:49;;;;;;;6.17;5.10;;;13.60;99.90;;;;;;5050011;28;20283;-64
2021/09/25 01:25:18;;;;;;;7.60;5.33;;;13.60;99.90;;;;;;5051086;28;20224;-64
2021/09/25 01:27:46;;;;;;;6.03;5.07;;;13.50;99.90;;;;;;5045451;28;20193;-64
2021/09/25 01:30:17;;;;;;;9.30;6.60;;;13.50;99.90;;;;;;5044635;28;20593;-64
2021/09/25 01:32:46;;;;;;;9.60;6.57;;;13.50;99.90;;;;;;5065764;28;20244;-64
2021/09/25 01:35:17;;;;;;;12.77;7.40;;;13.60;99.90;;;;;;5049062;28;20188;-64
2021/09/25 01:37:48;;;;;;;9.97;7.50;;;13.50;99.90;;;;;;5042602;28;20229;-64
2021/09/25 01:40:18;;;;;;;11.57;7.60;;;13.50;99.90;;;;;;5048328;28;20670;-64
2021/09/25 01:42:47;;;;;;;14.03;8.00;;;13.50;99.90;;;;;;5076974;28;20276;-64
2021/09/25 01:45:16;;;;;;;13.53;8.53;;;13.50;99.90;;;;;;5039397;28;20232;-64
2021/09/25 01:47:44;;;;;;;14.53;9.30;;;13.50;99.90;;;;;;5027089;28;20232;-65
2021/09/25 01:50:15;;;;;;;15.57;9.30;;;13.40;99.90;;;;;;5036853;28;20193;-64
2021/09/25 01:52:44;;;;;;;14.63;9.60;;;13.40;99.90;;;;;;5046108;28;20287;-64
2021/09/25 01:55:14;;;;;;;22.67;10.33;;;13.40;99.90;;;;;;5034133;28;20205;-64
2021/09/25 01:57:42;;;;;;;17.07;10.00;;;13.50;99.90;;;;;;5030801;28;20572;-64
2021/09/25 02:00:12;;;;;;;14.43;9.43;;;13.40;99.90;;;;;;5032691;28;20201;-65
2021/09/25 02:02:40;;;;;;;19.60;10.87;;;13.40;99.90;;;;;;5031019;28;20225;-65
2021/09/25 02:05:11;;;;;;;18.47;10.63;;;13.40;99.90;;;;;;5039628;28;20193;-65
2021/09/25 02:07:39;;;;;;;20.40;11.63;;;13.40;99.90;;;;;;5032334;28;20363;-64
2021/09/25 02:10:09;;;;;;;20.07;11.87;;;13.40;99.90;;;;;;5037438;28;20627;-64
2021/09/25 02:12:39;;;;;;;18.57;11.53;;;13.40;99.90;;;;;;5022756;28;20266;-65
2021/09/25 02:15:08;;;;;;;19.50;12.17;;;13.40;99.90;;;;;;5031350;28;20202;-64
2021/09/25 02:17:37;;;;;;;22.67;12.07;;;13.40;99.90;;;;;;5020804;28;20201;-64
2021/09/25 02:20:07;;;;;;;19.17;12.53;;;13.40;99.90;;;;;;5037347;28;20225;-64
2021/09/25 02:22:35;;;;;;;24.43;12.20;;;13.40;99.90;;;;;;5028327;28;20194;-64
2021/09/25 02:25:05;;;;;;;20.47;12.23;;;13.40;99.90;;;;;;5033423;28;20225;-65
2021/09/25 02:27:39;;;;;;;22.13;12.37;;;13.40;99.90;;;;;;5030845;28;20663;-64
2021/09/25 02:30:13;;;;;;;20.97;12.20;;;13.40;99.90;;;;;;5035368;28;20194;-64
2021/09/25 02:32:42;;;;;;;24.80;12.27;;;13.40;99.90;;;;;;5036019;28;20219;-64
2021/09/25 02:35:11;;;;;;;23.93;12.87;;;13.40;99.90;;;;;;5036523;28;20284;-64
2021/09/25 02:37:40;;;;;;;29.47;14.77;;;13.40;99.90;;;;;;5037155;28;20237;-64
2021/09/25 02:40:10;;;;;;;25.47;14.17;;;13.30;99.90;;;;;;5035286;28;20283;-64
2021/09/25 02:42:40;;;;;;;26.13;14.27;;;13.30;99.90;;;;;;5031478;28;20220;-64
2021/09/25 02:45:11;;;;;;;28.13;15.00;;;13.30;99.90;;;;;;5028715;28;20627;-64
2021/09/25 02:47:50;;;;;;;29.40;16.00;;;13.30;99.90;;;;;;5026090;28;20203;-64
2021/09/25 02:50:20;;;;;;;33.57;15.53;;;13.30;99.90;;;;;;5033594;28;20201;-64
2021/09/25 02:52:49;;;;;;;28.37;15.70;;;13.30;99.90;;;;;;5027287;28;20208;-64
2021/09/25 02:55:18;;;;;;;28.60;16.03;;;13.40;99.90;;;;;;5034317;28;20284;-65
2021/09/25 02:57:47;;;;;;;30.90;17.13;;;13.50;99.90;;;;;;5044210;28;20289;-64
2021/09/25 03:00:19;;;;;;;32.73;17.40;;;13.50;99.90;;;;;;5036659;28;20722;-64
2021/09/25 03:02:47;;;;;;;32.40;16.67;;;13.40;99.90;;;;;;5033415;28;20221;-64
2021/09/25 03:05:17;;;;;;;34.53;18.33;;;13.40;99.90;;;;;;5033978;28;20201;-64
2021/09/25 03:07:45;;;;;;;33.13;17.80;;;13.40;99.90;;;;;;5033901;28;20192;-64
2021/09/25 03:10:14;;;;;;;36.67;17.57;;;13.40;99.90;;;;;;5035938;28;20201;-64
2021/09/25 03:12:42;;;;;;;30.80;16.37;;;13.40;99.90;;;;;;5031739;28;20272;-64
2021/09/25 03:15:11;;;;;;;32.50;17.13;;;13.40;99.90;;;;;;5033123;28;20201;-64
2021/09/25 03:17:41;;;;;;;31.03;17.00;;;13.40;99.90;;;;;;5026795;28;20189;-64
2021/09/25 03:20:11;;;;;;;31.93;16.67;;;13.40;99.90;;;;;;5033291;28;20259;-64
2021/09/25 03:22:39;;;;;;;30.43;16.30;;;13.50;99.90;;;;;;5036751;28;20276;-64
2021/09/25 03:25:09;;;;;;;32.33;17.17;;;13.50;99.90;;;;;;5036507;28;20193;-65
2021/09/25 03:27:39;;;;;;;31.03;16.33;;;13.40;99.90;;;;;;5039660;28;20280;-64
2021/09/25 03:30:10;;;;;;;29.63;17.10;;;13.40;99.90;;;;;;5035638;28;20193;-65
2021/09/25 03:32:39;;;;;;;33.13;17.50;;;13.40;99.90;;;;;;5039099;28;20244;-64
2021/09/25 03:35:10;;;;;;;31.93;16.40;;;13.30;99.90;;;;;;5036371;28;20213;-65
2021/09/25 03:37:38;;;;;;;29.50;15.97;;;13.30;99.90;;;;;;5034195;28;20201;-64
2021/09/25 03:40:08;;;;;;;29.43;16.47;;;13.30;99.90;;;;;;5040837;28;20205;-64
2021/09/25 03:42:37;;;;;;;32.07;16.90;;;13.20;99.90;;;;;;5037520;28;20628;-64
2021/09/25 03:45:07;;;;;;;31.10;16.20;;;13.20;99.90;;;;;;5031973;28;20262;-64
2021/09/25 03:47:35;;;;;;;30.90;16.50;;;13.10;99.90;;;;;;5034268;28;20224;-64
2021/09/25 03:50:05;;;;;;;28.63;16.57;;;13.10;99.90;;;;;;5030911;28;20301;-65
2021/09/25 03:52:35;;;;;;;32.23;16.30;;;13.00;99.90;;;;;;5047827;28;20241;-65
2021/09/25 03:55:04;;;;;;;30.90;17.27;;;13.00;99.90;;;;;;5037523;28;20205;-64
2021/09/25 03:57:32;;;;;;;32.70;16.97;;;13.00;99.90;;;;;;5032400;28;20189;-65
2021/09/25 04:00:01;;;;;;;33.23;17.00;;;12.90;99.90;;;;;;5032189;28;20189;-64
2021/09/25 04:02:29;;;;;;;32.90;17.00;;;12.90;99.90;;;;;;5042046;28;20607;-64
2021/09/25 04:04:58;;;;;;;37.63;18.17;;;12.90;99.90;;;;;;5032610;28;20209;-64
2021/09/25 04:07:26;;;;;;;32.63;17.43;;;12.90;99.90;;;;;;5030758;28;20671;-64
2021/09/25 04:09:56;;;;;;;32.63;17.17;;;12.80;99.90;;;;;;5037051;28;20233;-64
2021/09/25 04:12:24;;;;;;;32.47;17.30;;;12.90;99.90;;;;;;5041292;28;20652;-64
2021/09/25 04:15:34;;;;;;;38.57;18.87;;;12.90;99.90;;;;;;5032033;28;20229;-64
2021/09/25 04:18:02;;;;;;;38.87;18.47;;;12.90;99.90;;;;;;5031177;28;20213;-64
2021/09/25 04:20:31;;;;;;;36.17;19.00;;;12.80;99.90;;;;;;5031164;28;20201;-64
2021/09/25 04:23:00;;;;;;;38.97;18.57;;;12.80;99.90;;;;;;5032283;28;20213;-65
2021/09/25 04:25:31;;;;;;;34.87;17.63;;;12.80;99.90;;;;;;5032606;28;20296;-65
2021/09/25 04:28:04;;;;;;;37.90;18.60;;;12.80;99.90;;;;;;5033764;28;20225;-65
2021/09/25 04:30:33;;;;;;;41.53;19.30;;;12.80;99.90;;;;;;5035051;28;20185;-64
2021/09/25 04:33:02;;;;;;;34.27;18.83;;;12.70;99.90;;;;;;5033256;28;20763;-65
2021/09/25 04:35:31;;;;;;;38.07;18.77;;;12.70;99.90;;;;;;5033284;28;20225;-64
2021/09/25 04:38:00;;;;;;;36.33;18.97;;;12.70;99.90;;;;;;5042478;28;20201;-64
2021/09/25 04:40:30;;;;;;;36.30;18.97;;;12.70;99.90;;;;;;5030911;28;20213;-64
2021/09/25 04:43:00;;;;;;;39.77;18.77;;;12.70;99.90;;;;;;5033116;28;20217;-64
2021/09/25 04:45:29;;;;;;;39.70;18.33;;;12.60;99.90;;;;;;5032615;28;20189;-64
2021/09/25 04:47:57;;;;;;;36.67;19.23;;;12.60;99.90;;;;;;5035086;28;20640;-65
2021/09/25 04:50:29;;;;;;;40.90;19.70;;;12.60;99.90;;;;;;5030162;28;20544;-64
2021/09/25 04:53:06;;;;;;;40.80;20.17;;;12.60;99.90;;;;;;5035012;28;20315;-65
2021/09/25 04:55:36;;;;;;;43.67;19.90;;;12.70;99.90;;;;;;5034192;28;20453;-64
2021/09/25 04:58:05;;;;;;;37.77;19.73;;;12.70;99.90;;;;;;5031147;28;20250;-64
2021/09/25 05:00:34;;;;;;;43.07;19.73;;;12.70;99.90;;;;;;5031478;28;20247;-64
2021/09/25 05:03:03;;;;;;;36.83;19.20;;;12.70;99.90;;;;;;5036314;28;20249;-64
2021/09/25 05:05:32;;;;;;;43.70;19.93;;;12.60;99.90;;;;;;5033892;28;20644;-64
2021/09/25 05:08:00;;;;;;;40.70;19.70;;;12.60;99.90;;;;;;5034042;28;20401;-64
2021/09/25 05:10:29;;;;;;;38.17;19.70;;;12.60;99.90;;;;;;5027461;28;20716;-64
2021/09/25 05:12:58;;;;;;;42.00;19.43;;;12.60;99.90;;;;;;5041476;28;20276;-64
2021/09/25 05:15:27;;;;;;;39.33;19.33;;;12.60;99.90;;;;;;5031386;28;20194;-64
2021/09/25 05:17:55;;;;;;;41.67;19.50;;;12.60;99.90;;;;;;5045064;28;20582;-64
2021/09/25 05:20:24;;;;;;;40.03;20.27;;;12.60;99.90;;;;;;5030288;28;20213;-64
2021/09/25 05:22:52;;;;;;;39.63;20.07;;;12.60;99.90;;;;;;5037962;28;20221;-64
2021/09/25 05:25:24;;;;;;;39.20;19.73;;;12.60;99.90;;;;;;5033771;28;20550;-65
2021/09/25 05:27:52;;;;;;;41.93;19.97;;;12.60;99.90;;;;;;5043428;28;20639;-64
2021/09/25 05:30:22;;;;;;;40.70;19.90;;;12.70;99.90;;;;;;5032517;28;20722;-65
2021/09/25 05:32:51;;;;;;;46.13;20.60;;;12.70;99.90;;;;;;5049933;28;20205;-64
2021/09/25 05:35:19;;;;;;;38.23;19.57;;;12.60;99.90;;;;;;5035204;28;20257;-64
2021/09/25 05:37:47;;;;;;;46.00;20.30;;;12.60;99.90;;;;;;5028968;28;20233;-64
2021/09/25 05:40:16;;;;;;;45.97;21.20;;;12.70;99.90;;;;;;5025522;28;20232;-64
2021/09/25 05:42:44;;;;;;;42.70;20.03;;;12.60;99.90;;;;;;5033054;28;20659;-64
2021/09/25 05:45:15;;;;;;;44.67;20.77;;;12.60;99.90;;;;;;5027001;28;20292;-64
2021/09/25 05:47:46;;;;;;;41.90;20.03;;;12.60;99.90;;;;;;5033190;28;20228;-65
2021/09/25 05:50:15;;;;;;;41.27;19.77;;;12.60;99.90;;;;;;5029084;28;20251;-63
2021/09/25 05:52:43;;;;;;;42.77;20.30;;;12.60;99.90;;;;;;5032259;28;20395;-64
2021/09/25 05:55:12;;;;;;;42.00;21.13;;;12.60;99.90;;;;;;5030983;28;20270;-64
2021/09/25 05:57:43;;;;;;;42.47;20.77;;;12.70;99.90;;;;;;5028446;28;20241;-64
2021/09/25 06:00:12;;;;;;;47.70;21.20;;;12.70;99.90;;;;;;5029521;28;20189;-64
2021/09/25 06:02:42;;;;;;;47.87;22.33;;;12.70;99.90;;;;;;5027156;28;20703;-64
2021/09/25 06:05:12;;;;;;;48.30;20.73;;;12.80;99.90;;;;;;5026072;28;20203;-64
2021/09/25 06:07:41;;;;;;;55.03;23.43;;;12.80;99.90;;;;;;5036344;28;20228;-65
2021/09/25 06:10:10;;;;;;;48.90;22.03;;;12.80;99.90;;;;;;5032295;28;20193;-64
2021/09/25 06:12:38;;;;;;;49.60;22.17;;;12.90;99.90;;;;;;5032600;28;20644;-64
2021/09/25 06:15:08;;;;;;;49.03;21.53;;;12.90;99.90;;;;;;5032973;28;20218;-64
2021/09/25 06:17:36;;;;;;;62.97;24.40;;;12.90;99.90;;;;;;5040215;28;20254;-64
2021/09/25 06:20:10;;;;;;;55.77;22.17;;;13.00;99.90;;;;;;5037686;28;20278;-64
2021/09/25 06:22:40;;;;;;;63.50;23.67;;;13.10;99.90;;;;;;5042694;28;20221;-64
2021/09/25 06:25:09;;;;;;;56.27;23.23;;;13.10;99.90;;;;;;5035398;28;20221;-64
2021/09/25 06:27:39;;;;;;;55.83;23.17;;;13.10;99.90;;;;;;5028244;28;20198;-64
2021/09/25 06:30:08;;;;;;;60.00;23.57;;;13.20;99.90;;;;;;5037753;28;20617;-64
2021/09/25 06:32:37;;;;;;;60.17;24.37;;;13.20;99.90;;;;;;5040587;28;20289;-64
2021/09/25 06:35:08;;;;;;;60.17;23.00;;;13.20;99.90;;;;;;5039807;28;20212;-64
2021/09/25 06:37:38;;;;;;;59.27;23.73;;;13.20;99.90;;;;;;5044922;28;20297;-65
2021/09/25 06:40:09;;;;;;;64.27;24.23;;;13.30;99.90;;;;;;5036867;28;20735;-65
2021/09/25 06:42:37;;;;;;;59.80;24.43;;;13.30;99.90;;;;;;5040200;28;20559;-64
2021/09/25 06:45:07;;;;;;;55.00;22.93;;;13.30;99.90;;;;;;5024181;28;20657;-64
2021/09/25 06:47:36;;;;;;;54.17;22.53;;;13.40;99.90;;;;;;5041130;28;20202;-64
2021/09/25 06:50:05;;;;;;;51.30;21.43;;;13.40;99.90;;;;;;5032214;28;20244;-65
2021/09/25 06:52:33;;;;;;;55.73;21.87;;;13.50;99.90;;;;;;5025830;28;20224;-64
2021/09/25 06:55:04;;;;;;;53.33;22.53;;;13.50;99.90;;;;;;5037086;28;20338;-64
2021/09/25 06:57:32;;;;;;;50.57;22.60;;;13.50;99.90;;;;;;5032666;28;20223;-65
2021/09/25 07:00:01;;;;;;;43.53;21.93;;;13.60;99.90;;;;;;5042680;28;20280;-65
2021/09/25 07:02:30;;;;;;;46.57;20.83;;;13.70;99.90;;;;;;5036755;28;20258;-65
2021/09/25 07:04:58;;;;;;;43.07;21.37;;;13.90;99.90;;;;;;5034467;28;20212;-64
2021/09/25 07:07:27;;;;;;;45.50;20.87;;;14.00;99.90;;;;;;5041898;28;20204;-65
2021/09/25 07:09:55;;;;;;;36.90;19.27;;;14.10;99.90;;;;;;5048266;28;20685;-65
2021/09/25 07:12:25;;;;;;;34.47;19.33;;;14.20;99.90;;;;;;5047575;28;20691;-65
2021/09/25 07:14:56;;;;;;;38.30;20.50;;;14.30;99.90;;;;;;5036799;28;20651;-65
2021/09/25 07:17:24;;;;;;;33.93;17.87;;;14.40;99.90;;;;;;5055707;28;20196;-65
2021/09/25 07:19:53;;;;;;;34.07;18.30;;;14.60;99.90;;;;;;5048375;28;20259;-65
2021/09/25 07:22:21;;;;;;;34.07;18.03;;;14.70;99.90;;;;;;5035782;28;20224;-65
2021/09/25 07:24:54;;;;;;;29.70;17.60;;;14.80;99.90;;;;;;5044996;28;20292;-65
2021/09/25 07:27:23;;;;;;;29.37;17.13;;;14.80;99.90;;;;;;5044938;28;20710;-64
2021/09/25 07:29:53;;;;;;;31.27;17.70;;;14.90;99.90;;;;;;5049247;28;20192;-65
2021/09/25 07:32:21;;;;;;;30.77;16.20;;;15.00;99.90;;;;;;5036755;28;20197;-65
2021/09/25 07:34:50;;;;;;;27.00;16.00;;;15.10;99.90;;;;;;5036760;28;20201;-64
2021/09/25 07:37:18;;;;;;;28.37;17.53;;;15.20;99.90;;;;;;5026075;28;20744;-65
2021/09/25 07:39:47;;;;;;;26.07;15.43;;;15.30;99.90;;;;;;5047108;28;20658;-65
2021/09/25 07:42:15;;;;;;;25.77;15.60;;;15.40;99.90;;;;;;5038100;28;20599;-65
2021/09/25 07:44:43;;;;;;;27.83;15.53;;;15.60;99.90;;;;;;5042058;28;20215;-65
2021/09/25 07:47:13;;;;;;;23.30;14.73;;;15.90;99.90;;;;;;5040192;28;20192;-65
2021/09/25 07:49:41;;;;;;;25.77;16.43;;;15.90;99.90;;;;;;5032157;28;20198;-65
2021/09/25 07:52:10;;;;;;;24.53;15.03;;;16.00;99.90;;;;;;5023537;28;20221;-65
2021/09/25 07:54:38;;;;;;;22.53;14.63;;;16.00;99.90;;;;;;5036386;28;20214;-65
2021/09/25 07:57:06;;;;;;;24.73;15.20;;;16.00;99.90;;;;;;5061908;28;20591;-65
2021/09/25 07:59:36;;;;;;;22.87;13.83;;;16.20;99.90;;;;;;5032030;28;20455;-65
2021/09/25 08:02:04;;;;;;;22.70;14.77;;;16.30;99.90;;;;;;5026347;28;20251;-65
2021/09/25 08:04:34;;;;;;;22.60;14.23;;;16.50;99.90;;;;;;5029049;28;20268;-65
2021/09/25 08:07:03;;;;;;;25.10;14.87;;;16.50;99.90;;;;;;5029795;28;20281;-65
2021/09/25 08:09:31;;;;;;;22.90;13.40;;;16.60;99.90;;;;;;5039374;28;20224;-65
2021/09/25 08:11:59;;;;;;;21.30;13.60;;;16.60;99.90;;;;;;5030693;28;20190;-64
2021/09/25 08:14:28;;;;;;;23.63;14.50;;;16.90;99.90;;;;;;5040854;28;20288;-64
2021/09/25 08:16:56;;;;;;;20.53;13.77;;;17.00;99.90;;;;;;5035515;28;20187;-65
2021/09/25 08:19:25;;;;;;;21.73;14.07;;;16.90;99.90;;;;;;5036700;28;20221;-64
2021/09/25 08:21:54;;;;;;;19.33;13.10;;;17.00;99.90;;;;;;5035013;28;20193;-65
2021/09/25 08:24:23;;;;;;;23.77;13.07;;;17.00;99.90;;;;;;5035952;28;20201;-67
2021/09/25 08:26:51;;;;;;;20.77;13.13;;;17.00;99.90;;;;;;5031389;28;20225;-67
2021/09/25 08:29:19;;;;;;;21.67;13.67;;;17.00;99.90;;;;;;5032484;28;20192;-65
2021/09/25 08:31:48;;;;;;;19.23;13.43;;;17.20;99.90;;;;;;5028478;28;20472;-65
2021/09/25 08:34:18;;;;;;;22.00;14.03;;;17.30;99.90;;;;;;5029128;28;20663;-65
2021/09/25 08:36:47;;;;;;;20.50;14.23;;;17.40;99.90;;;;;;5032984;28;20237;-64
2021/09/25 08:39:17;;;;;;;21.30;14.23;;;17.60;99.90;;;;;;5036702;28;20252;-65
2021/09/25 08:41:46;;;;;;;25.07;15.17;;;17.60;99.90;;;;;;5029917;28;20249;-65
2021/09/25 08:44:15;;;;;;;24.53;14.40;;;17.60;99.90;;;;;;5011567;28;20195;-65
2021/09/25 08:46:43;;;;;;;18.87;13.83;;;17.60;99.90;;;;;;5028559;28;20620;-64
2021/09/25 08:49:11;;;;;;;20.87;14.73;;;17.60;99.90;;;;;;5033876;28;20850;-65
2021/09/25 08:51:40;;;;;;;22.27;15.13;;;17.70;99.90;;;;;;5028471;28;20222;-65
2021/09/25 08:54:08;;;;;;;24.73;15.77;;;17.60;99.90;;;;;;5028345;28;20610;-65
2021/09/25 08:56:39;;;;;;;23.47;15.10;;;17.60;99.90;;;;;;5033197;28;20280;-64
2021/09/25 08:59:07;;;;;;;23.67;15.03;;;17.70;99.90;;;;;;5026590;28;20191;-64
2021/09/25 09:01:36;;;;;;;24.63;15.03;;;17.80;99.90;;;;;;5034173;28;20201;-65
2021/09/25 09:04:05;;;;;;;23.83;15.77;;;17.90;99.90;;;;;;5032155;28;20244;-64
2021/09/25 09:06:36;;;;;;;22.03;14.83;;;18.00;99.90;;;;;;5036728;28;20217;-65
2021/09/25 09:09:06;;;;;;;21.90;14.60;;;18.00;99.90;;;;;;5038222;28;20554;-64
2021/09/25 09:11:43;;;;;;;22.80;14.43;;;18.00;99.90;;;;;;5028754;28;20210;-65
2021/09/25 09:14:15;;;;;;;23.23;15.07;;;17.90;99.90;;;;;;5037931;28;20684;-64
2021/09/25 09:16:54;;;;;;;27.27;15.40;;;17.90;99.90;;;;;;5030206;28;20300;-65
2021/09/25 09:19:22;;;;;;;22.07;14.10;;;18.10;99.90;;;;;;5036877;28;20623;-65
2021/09/25 09:21:51;;;;;;;23.93;15.20;;;18.30;99.90;;;;;;5036034;28;20277;-64
2021/09/25 09:24:20;;;;;;;20.03;13.53;;;18.30;99.90;;;;;;5040727;28;20318;-64
2021/09/25 09:26:50;;;;;;;22.70;14.53;;;18.40;99.90;;;;;;5033988;28;20589;-64
2021/09/25 09:29:19;;;;;;;24.87;14.50;;;18.40;99.90;;;;;;5047318;28;20689;-64
2021/09/25 09:31:55;;;;;;;17.73;13.33;;;18.40;99.90;;;;;;5032800;28;20522;-65
2021/09/25 09:34:24;;;;;;;22.23;14.47;;;18.40;99.90;;;;;;5034310;28;20198;-65
2021/09/25 09:36:52;;;;;;;19.20;13.40;;;18.60;99.90;;;;;;5030890;28;20208;-65
2021/09/25 09:39:23;;;;;;;20.13;13.07;;;18.60;99.90;;;;;;5039406;28;20197;-64
2021/09/25 09:41:55;;;;;;;19.37;12.97;;;18.60;99.90;;;;;;5035950;28;20196;-65
2021/09/25 09:44:25;;;;;;;20.43;13.90;;;18.70;99.90;;;;;;5033233;28;20674;-65
2021/09/25 09:46:56;;;;;;;21.77;13.43;;;18.60;99.90;;;;;;5031516;28;20725;-65
2021/09/25 09:49:26;;;;;;;19.37;12.90;;;18.60;99.90;;;;;;5028309;28;20369;-65
2021/09/25 09:51:56;;;;;;;19.57;12.20;;;18.80;99.90;;;;;;5039649;28;20210;-65
2021/09/25 09:54:26;;;;;;;17.67;12.37;;;18.80;99.90;;;;;;5038103;28;20199;-65
2021/09/25 09:56:59;;;;;;;15.73;11.83;;;18.90;99.90;;;;;;5032593;28;20878;-65
2021/09/25 09:59:29;;;;;;;17.57;12.63;;;19.10;99.90;;;;;;5031802;28;20227;-64
2021/09/25 10:01:57;;;;;;;17.77;11.63;;;19.00;99.90;;;;;;5030415;28;20644;-65
2021/09/25 10:04:26;;;;;;;15.93;11.30;;;19.20;99.90;;;;;;5035004;28;20234;-65
2021/09/25 10:06:56;;;;;;;12.97;10.03;;;19.30;99.90;;;;;;5032454;28;20243;-64
2021/09/25 10:09:27;;;;;;;14.80;10.47;;;19.30;99.90;;;;;;5033050;28;20257;-65
2021/09/25 10:11:59;;;;;;;17.97;12.10;;;19.50;99.90;;;;;;5040372;28;20197;-65
2021/09/25 10:14:29;;;;;;;18.53;12.43;;;19.60;99.90;;;;;;5032995;28;20259;-65
2021/09/25 10:16:59;;;;;;;19.00;12.97;;;19.70;99.90;;;;;;5030438;28;20213;-65
2021/09/25 10:19:31;;;;;;;15.90;11.77;;;19.90;99.90;;;;;;5031089;28;20278;-65
2021/09/25 10:22:04;;;;;;;16.43;12.00;;;19.90;99.90;;;;;;5035937;28;20679;-65
2021/09/25 10:24:35;;;;;;;19.23;12.83;;;20.00;99.90;;;;;;5049216;28;20243;-65
2021/09/25 10:27:07;;;;;;;14.63;10.80;;;20.10;99.90;;;;;;5039605;28;20393;-65
2021/09/25 10:29:43;;;;;;;12.23;9.73;;;20.20;99.90;;;;;;5032039;28;20224;-65
2021/09/25 10:32:20;;;;;;;13.03;9.50;;;20.50;99.90;;;;;;5033243;28;20610;-65
2021/09/25 10:35:14;;;;;;;11.50;8.77;;;20.70;99.90;;;;;;5022021;28;20204;-65
2021/09/25 10:37:44;;;;;;;11.77;8.33;;;20.80;99.90;;;;;;5036234;28;20213;-65
2021/09/25 10:40:37;;;;;;;13.80;9.40;;;20.90;99.90;;;;;;5029836;28;20197;-65
2021/09/25 10:43:18;;;;;;;11.60;8.00;;;20.80;99.90;;;;;;5026864;28;20682;-65
2021/09/25 10:45:50;;;;;;;9.40;7.20;;;20.70;99.90;;;;;;5031365;28;20216;-65
2021/09/25 10:48:28;;;;;;;11.47;7.87;;;20.80;99.90;;;;;;5031665;28;20280;-65
2021/09/25 10:50:58;;;;;;;12.03;8.93;;;21.00;99.90;;;;;;5034726;28;20190;-65
2021/09/25 10:53:28;;;;;;;11.27;7.77;;;21.10;99.90;;;;;;5031097;28;20201;-65
2021/09/25 10:55:59;;;;;;;7.63;6.47;;;21.10;99.90;;;;;;5029960;28;20205;-65
2021/09/25 10:58:34;;;;;;;8.57;6.77;;;21.00;99.90;;;;;;5026289;28;20197;-65
2021/09/25 11:01:06;;;;;;;7.73;5.83;;;20.90;99.90;;;;;;5031641;28;20228;-65
2021/09/25 11:03:58;;;;;;;7.00;6.30;;;21.00;99.90;;;;;;5023436;28;20235;-65
2021/09/25 11:06:30;;;;;;;9.27;6.73;;;21.10;99.90;;;;;;5029706;28;20555;-65
2021/09/25 11:09:00;;;;;;;9.67;7.30;;;21.30;99.90;;;;;;5032482;28;20236;-65
2021/09/25 11:11:35;;;;;;;9.43;6.33;;;21.50;99.90;;;;;;5026512;28;20232;-64
2021/09/25 11:14:24;;;;;;;8.23;6.97;;;21.60;99.90;;;;;;5034483;28;20188;-65
2021/09/25 11:17:08;;;;;;;7.73;6.90;;;21.60;99.90;;;;;;5034721;28;20212;-65
2021/09/25 11:19:48;;;;;;;8.93;6.20;;;21.70;99.90;;;;;;5026201;28;20196;-65
2021/09/25 11:22:21;;;;;;;6.00;5.40;;;21.80;99.90;;;;;;5037482;28;20189;-65
2021/09/25 11:24:51;;;;;;;4.03;3.73;;;22.00;99.90;;;;;;5031262;28;20587;-65
2021/09/25 11:27:22;;;;;;;5.00;4.60;;;22.10;99.90;;;;;;5035238;28;20656;-64
2021/09/25 11:29:55;;;;;;;4.57;4.20;;;22.10;99.90;;;;;;5044358;28;20248;-65
2021/09/25 11:32:29;;;;;;;3.20;3.10;;;22.00;99.90;;;;;;5034277;28;20310;-65
2021/09/25 11:34:58;;;;;;;4.07;3.60;;;21.90;99.90;;;;;;5025686;28;20653;-65
2021/09/25 11:37:27;;;;;;;3.90;3.60;;;22.00;99.90;;;;;;5030235;28;20252;-65
2021/09/25 11:39:56;;;;;;;3.50;3.30;;;22.00;99.90;;;;;;5029709;28;20205;-65
2021/09/25 11:42:26;;;;;;;4.60;4.17;;;22.10;99.90;;;;;;5028530;28;20193;-67
2021/09/25 11:44:59;;;;;;;6.13;4.20;;;22.20;99.90;;;;;;5038960;28;20643;-65
2021/09/25 11:47:33;;;;;;;4.53;4.23;;;22.10;99.90;;;;;;5031608;28;20219;-65
2021/09/25 11:50:13;;;;;;;5.50;5.03;;;22.10;99.90;;;;;;5030566;28;20204;-65
2021/09/25 11:52:43;;;;;;;5.40;4.90;;;22.00;99.90;;;;;;5029154;28;20255;-65
2021/09/25 11:55:12;;;;;;;5.67;5.17;;;22.10;99.90;;;;;;5030043;28;20263;-64
2021/09/25 11:57:47;;;;;;;5.80;5.03;;;22.00;99.90;;;;;;5039323;28;20212;-65
2021/09/25 12:00:23;;;;;;;4.50;4.20;;;22.10;99.90;;;;;;5036116;28;20223;-65
2021/09/25 12:02:52;;;;;;;5.77;5.20;;;22.20;99.90;;;;;;5033040;28;20794;-64
2021/09/25 12:05:33;;;;;;;4.70;4.23;;;22.10;99.90;;;;;;5033842;28;20737;-65
2021/09/25 12:08:04;;;;;;;4.40;4.10;;;22.00;99.90;;;;;;5023456;28;20200;-65
2021/09/25 12:10:35;;;;;;;4.63;3.27;;;22.00;99.90;;;;;;5027401;28;20201;-65
2021/09/25 12:13:05;;;;;;;3.43;3.13;;;22.20;99.90;;;;;;5036391;28;20197;-65
2021/09/25 12:15:37;;;;;;;3.77;3.57;;;22.20;99.90;;;;;;5036316;28;20218;-65
2021/09/25 12:18:17;;;;;;;5.80;4.50;;;22.40;99.90;;;;;;5033094;28;20305;-65
2021/09/25 12:20:54;;;;;;;3.47;3.27;;;22.40;99.90;;;;;;5027389;28;20201;-65
2021/09/25 12:23:26;;;;;;;3.60;3.30;;;22.40;99.90;;;;;;5029753;28;20194;-65
2021/09/25 12:25:55;;;;;;;3.97;3.33;;;22.40;99.90;;;;;;5035015;28;20637;-65
2021/09/25 12:28:33;;;;;;;3.63;3.07;;;22.50;99.90;;;;;;5039090;28;20226;-65
2021/09/25 12:31:05;;;;;;;3.50;3.20;;;22.40;99.90;;;;;;5044065;28;20193;-65
2021/09/25 12:33:35;;;;;;;3.37;3.17;;;22.50;99.90;;;;;;5040233;28;20672;-65
2021/09/25 12:36:07;;;;;;;3.43;3.23;;;22.60;99.90;;;;;;5029781;28;20533;-66
2021/09/25 12:38:37;;;;;;;5.30;4.83;;;22.70;99.90;;;;;;5038189;28;20308;-65
2021/09/25 12:41:09;;;;;;;4.87;4.47;;;22.80;99.90;;;;;;5037279;28;20201;-66
2021/09/25 12:43:43;;;;;;;51.63;6.30;;;22.90;99.90;;;;;;5052699;28;20249;-66
2021/09/25 12:46:16;;;;;;;14.17;5.93;;;23.00;99.90;;;;;;5040910;28;20201;-65
2021/09/25 12:49:02;;;;;;;7.03;4.13;;;23.20;99.90;;;;;;5047144;28;20630;-66